Time;durP1;ratioP1;P1;durP2;ratioP2;P2;SDS_P1;SDS_P2;PMS_P1;PMS_P2;Temp;Humidity;BMP_temperature;BMP_pressure;BME280_temperature;BME280_humidity;BME280_pressure;Samples;Min_cycle;Max_cycle;Signal;HPM_P1;HPM_P2
2023/08/20 00:01:27;;;;;;;;;;;21.10;76.10;;;;;;5092307;28;19915;-34
2023/08/20 00:03:52;;;;;;;;;;;21.10;76.10;;;;;;5092160;28;20288;-34
2023/08/20 00:06:18;;;;;;;;;;;21.10;76.10;;;;;;5092008;28;19924;-35
2023/08/20 00:08:44;;;;;;;;;;;21.10;76.20;;;;;;5092259;28;20403;-35
2023/08/20 00:11:11;;;;;;;;;;;21.10;76.30;;;;;;5091610;28;20053;-35
2023/08/20 00:13:36;;;;;;;;;;;21.00;76.20;;;;;;5092050;28;19915;-35
2023/08/20 00:16:03;;;;;;;;;;;21.10;76.30;;;;;;5092130;28;19908;-35
2023/08/20 00:18:28;;;;;;;;;;;21.10;76.20;;;;;;5092159;28;19925;-36
2023/08/20 00:20:54;;;;;;;;;;;21.20;76.20;;;;;;5091987;28;19908;-34
2023/08/20 00:23:20;;;;;;;;;;;21.10;76.10;;;;;;5092333;28;19915;-35
2023/08/20 00:25:45;;;;;;;;;;;21.20;76.20;;;;;;5092024;28;19916;-35
2023/08/20 00:28:11;;;;;;;;;;;21.20;76.20;;;;;;5091909;28;19908;-35
2023/08/20 00:30:36;;;;;;;;;;;21.10;76.20;;;;;;5090693;28;19909;-35
2023/08/20 00:33:02;;;;;;;;;;;21.10;76.30;;;;;;5091992;28;19908;-34
2023/08/20 00:35:27;;;;;;;;;;;21.00;76.30;;;;;;5092282;28;19912;-35
2023/08/20 00:37:53;;;;;;;;;;;21.00;76.50;;;;;;5092078;28;19915;-35
2023/08/20 00:40:18;;;;;;;;;;;20.90;76.60;;;;;;5092276;28;19915;-35
2023/08/20 00:42:44;;;;;;;;;;;20.90;76.70;;;;;;5091900;28;20280;-35
2023/08/20 00:45:09;;;;;;;;;;;20.80;76.80;;;;;;5091878;28;19951;-35
2023/08/20 00:47:35;;;;;;;;;;;20.80;76.90;;;;;;5091799;28;20383;-35
2023/08/20 00:50:04;;;;;;;;;;;20.70;76.90;;;;;;5091542;28;19908;-35
2023/08/20 00:52:31;;;;;;;;;;;20.70;77.00;;;;;;5091887;28;20276;-35
2023/08/20 00:54:57;;;;;;;;;;;20.60;77.10;;;;;;5091838;28;19908;-35
2023/08/20 00:57:23;;;;;;;;;;;20.60;77.10;;;;;;5091671;28;20261;-41
2023/08/20 00:59:49;;;;;;;;;;;20.60;77.30;;;;;;5091716;28;20380;-35
2023/08/20 01:02:15;;;;;;;;;;;20.60;77.30;;;;;;5091325;28;19912;-35
2023/08/20 01:04:41;;;;;;;;;;;20.50;77.30;;;;;;5091437;28;20435;-34
2023/08/20 01:07:15;;;;;;;;;;;20.50;77.40;;;;;;5091706;28;20002;-34
2023/08/20 01:09:46;;;;;;;;;;;20.50;77.40;;;;;;5091641;28;19935;-34
2023/08/20 01:12:13;;;;;;;;;;;20.50;77.50;;;;;;5091776;28;20368;-34
2023/08/20 01:14:38;;;;;;;;;;;20.40;77.40;;;;;;5091699;28;19931;-34
2023/08/20 01:17:04;;;;;;;;;;;20.40;77.50;;;;;;5091488;28;19908;-35
2023/08/20 01:19:30;;;;;;;;;;;20.40;77.50;;;;;;5091508;28;19912;-34
2023/08/20 01:22:11;;;;;;;;;;;20.40;77.50;;;;;;5091616;28;20256;-36
2023/08/20 01:24:39;;;;;;;;;;;20.40;77.60;;;;;;5094863;28;20385;-37
2023/08/20 01:27:28;;;;;;;;;;;20.50;77.50;;;;;;5095042;28;19908;-35
2023/08/20 01:29:54;;;;;;;;;;;20.50;77.50;;;;;;5093703;28;19909;-34
2023/08/20 01:32:20;;;;;;;;;;;20.50;77.30;;;;;;5094977;28;19930;-35
2023/08/20 01:34:48;;;;;;;;;;;20.60;77.40;;;;;;5095024;28;20284;-35
2023/08/20 01:37:13;;;;;;;;;;;20.60;77.30;;;;;;5094951;28;20271;-33
2023/08/20 01:39:39;;;;;;;;;;;20.60;77.70;;;;;;5094854;28;20003;-35
2023/08/20 01:42:05;;;;;;;;;;;20.60;77.30;;;;;;5094834;28;19915;-35
2023/08/20 01:44:30;;;;;;;;;;;20.70;77.40;;;;;;5094716;28;20371;-33
2023/08/20 01:46:56;;;;;;;;;;;20.60;77.30;;;;;;5093295;28;19908;-36
2023/08/20 01:49:21;;;;;;;;;;;20.60;77.40;;;;;;5094395;28;20386;-32
2023/08/20 01:51:46;;;;;;;;;;;20.60;77.40;;;;;;5094676;28;19931;-35
2023/08/20 01:54:12;;;;;;;;;;;20.60;77.50;;;;;;5094594;28;19915;-35
2023/08/20 01:56:37;;;;;;;;;;;20.50;77.50;;;;;;5094459;28;20423;-36
2023/08/20 01:59:03;;;;;;;;;;;20.50;77.60;;;;;;5094460;28;19908;-34
2023/08/20 02:01:28;;;;;;;;;;;20.50;77.70;;;;;;5094120;28;19955;-36
2023/08/20 02:03:54;;;;;;;;;;;20.50;77.80;;;;;;5094267;28;20328;-34
2023/08/20 02:06:19;;;;;;;;;;;20.50;77.80;;;;;;5094122;28;19924;-34
2023/08/20 02:08:45;;;;;;;;;;;20.50;77.90;;;;;;5094421;28;19909;-38
2023/08/20 02:11:10;;;;;;;;;;;20.40;77.90;;;;;;5094303;28;19912;-34
2023/08/20 02:13:36;;;;;;;;;;;20.30;77.90;;;;;;5094179;28;20350;-37
2023/08/20 02:16:02;;;;;;;;;;;20.30;78.00;;;;;;5093987;28;19934;-34
2023/08/20 02:18:28;;;;;;;;;;;20.30;78.10;;;;;;5094415;28;19931;-35
2023/08/20 02:20:53;;;;;;;;;;;20.20;78.20;;;;;;5093992;28;19908;-33
2023/08/20 02:23:19;;;;;;;;;;;20.20;78.30;;;;;;5094147;28;20363;-35
2023/08/20 02:25:44;;;;;;;;;;;20.20;78.30;;;;;;5093856;28;19911;-33
2023/08/20 02:28:10;;;;;;;;;;;20.20;78.40;;;;;;5094030;28;19908;-34
2023/08/20 02:30:40;;;;;;;;;;;20.20;78.40;;;;;;5093924;28;19961;-35
2023/08/20 02:33:05;;;;;;;;;;;20.10;78.40;;;;;;5094147;28;19908;-34
2023/08/20 02:35:31;;;;;;;;;;;20.10;78.40;;;;;;5092953;28;19915;-35
2023/08/20 02:37:56;;;;;;;;;;;20.10;78.40;;;;;;5094041;28;19908;-35
2023/08/20 02:40:22;;;;;;;;;;;20.10;78.50;;;;;;5093809;28;19908;-35
2023/08/20 02:42:47;;;;;;;;;;;20.10;78.60;;;;;;5093599;28;20279;-35
2023/08/20 02:45:12;;;;;;;;;;;20.00;78.70;;;;;;5093627;28;19912;-35
2023/08/20 02:47:38;;;;;;;;;;;19.90;78.80;;;;;;5093516;28;20003;-37
2023/08/20 02:50:04;;;;;;;;;;;19.90;78.90;;;;;;5093621;28;19923;-38
2023/08/20 02:52:29;;;;;;;;;;;19.90;78.90;;;;;;5093525;28;19908;-40
2023/08/20 02:54:55;;;;;;;;;;;19.90;78.90;;;;;;5092244;28;19908;-35
2023/08/20 02:57:21;;;;;;;;;;;19.90;78.90;;;;;;5093346;28;19908;-35
2023/08/20 02:59:46;;;;;;;;;;;19.80;78.90;;;;;;5093679;28;19912;-35
2023/08/20 03:02:12;;;;;;;;;;;19.80;79.00;;;;;;5093533;28;20452;-35
2023/08/20 03:04:37;;;;;;;;;;;19.80;79.00;;;;;;5093096;28;20627;-35
2023/08/20 03:07:03;;;;;;;;;;;19.80;79.10;;;;;;5093257;28;19915;-45
2023/08/20 03:09:28;;;;;;;;;;;19.70;79.20;;;;;;5093554;28;19916;-35
2023/08/20 03:11:54;;;;;;;;;;;19.70;79.20;;;;;;5093173;28;19915;-35
2023/08/20 03:14:19;;;;;;;;;;;19.70;79.30;;;;;;5093465;28;19995;-35
2023/08/20 03:16:44;;;;;;;;;;;19.70;79.40;;;;;;5092965;28;20403;-35
2023/08/20 03:19:10;;;;;;;;;;;19.70;79.50;;;;;;5093359;28;20007;-35
2023/08/20 03:21:35;;;;;;;;;;;19.60;79.50;;;;;;5092848;28;19921;-35
2023/08/20 03:24:02;;;;;;;;;;;19.60;79.50;;;;;;5092825;28;20007;-36
2023/08/20 03:26:27;;;;;;;;;;;19.60;79.60;;;;;;5092835;28;20006;-37
2023/08/20 03:28:52;;;;;;;;;;;19.60;79.60;;;;;;5092806;28;19966;-35
2023/08/20 03:31:18;;;;;;;;;;;19.50;79.60;;;;;;5092734;28;19912;-41
2023/08/20 03:33:43;;;;;;;;;;;19.50;79.70;;;;;;5092809;28;20024;-35
2023/08/20 03:36:09;;;;;;;;;;;19.50;79.80;;;;;;5092677;28;19908;-36
2023/08/20 03:38:34;;;;;;;;;;;19.40;79.80;;;;;;5092803;28;19908;-35
2023/08/20 03:41:00;;;;;;;;;;;19.30;79.90;;;;;;5092653;28;19909;-39
2023/08/20 03:43:25;;;;;;;;;;;19.30;80.00;;;;;;5093014;28;19908;-35
2023/08/20 03:45:51;;;;;;;;;;;19.30;80.10;;;;;;5092482;28;19912;-35
2023/08/20 03:48:17;;;;;;;;;;;19.20;80.10;;;;;;5092823;28;20328;-35
2023/08/20 03:50:42;;;;;;;;;;;19.20;80.10;;;;;;5092506;28;20011;-36
2023/08/20 03:53:08;;;;;;;;;;;19.20;80.10;;;;;;5092590;28;19912;-34
2023/08/20 03:55:33;;;;;;;;;;;19.20;80.10;;;;;;5092352;28;20371;-36
2023/08/20 03:57:59;;;;;;;;;;;19.20;80.20;;;;;;5092714;28;19912;-35
2023/08/20 04:00:24;;;;;;;;;;;19.20;80.20;;;;;;5092370;28;19955;-35
2023/08/20 04:02:50;;;;;;;;;;;19.20;80.20;;;;;;5092487;28;19908;-40
2023/08/20 04:05:15;;;;;;;;;;;19.20;80.10;;;;;;5092116;28;20023;-34
2023/08/20 04:07:41;;;;;;;;;;;19.20;80.10;;;;;;5092399;28;19934;-34
2023/08/20 04:10:07;;;;;;;;;;;19.20;80.20;;;;;;5090912;28;20418;-46
2023/08/20 04:12:33;;;;;;;;;;;19.10;80.20;;;;;;5092305;28;19915;-34
2023/08/20 04:14:58;;;;;;;;;;;19.10;80.30;;;;;;5092231;28;19935;-34
2023/08/20 04:17:23;;;;;;;;;;;19.10;80.40;;;;;;5092249;28;20002;-34
2023/08/20 04:19:49;;;;;;;;;;;19.00;80.40;;;;;;5092124;28;19908;-34
2023/08/20 04:22:14;;;;;;;;;;;19.00;80.50;;;;;;5092529;28;19951;-34
2023/08/20 04:24:40;;;;;;;;;;;19.00;80.50;;;;;;5092098;28;20023;-34
2023/08/20 04:27:05;;;;;;;;;;;19.00;80.50;;;;;;5090926;28;20031;-33
2023/08/20 04:29:31;;;;;;;;;;;19.00;80.50;;;;;;5092200;28;19916;-34
2023/08/20 04:31:56;;;;;;;;;;;19.00;80.60;;;;;;5092027;28;19908;-34
2023/08/20 04:34:22;;;;;;;;;;;19.00;80.60;;;;;;5092076;28;19908;-35
2023/08/20 04:36:47;;;;;;;;;;;19.00;80.60;;;;;;5091978;28;20315;-35
2023/08/20 04:39:13;;;;;;;;;;;19.00;80.60;;;;;;5092062;28;19915;-35
2023/08/20 04:41:38;;;;;;;;;;;19.00;80.60;;;;;;5091831;28;19908;-34
2023/08/20 04:44:04;;;;;;;;;;;18.90;80.60;;;;;;5091946;28;20027;-35
2023/08/20 04:46:29;;;;;;;;;;;18.90;81.30;;;;;;5091802;28;19908;-35
2023/08/20 04:48:55;;;;;;;;;;;18.90;80.60;;;;;;5092148;28;20362;-36
2023/08/20 04:51:20;;;;;;;;;;;18.90;80.60;;;;;;5091677;28;19912;-34
2023/08/20 04:53:47;;;;;;;;;;;18.90;80.60;;;;;;5092130;28;20019;-34
2023/08/20 04:56:13;;;;;;;;;;;18.90;80.60;;;;;;5091671;28;19908;-36
2023/08/20 04:58:38;;;;;;;;;;;18.90;80.60;;;;;;5094210;28;19916;-35
2023/08/20 05:01:05;;;;;;;;;;;19.00;80.60;;;;;;5095841;28;19915;-36
2023/08/20 05:03:31;;;;;;;;;;;19.00;80.60;;;;;;5095843;28;20318;-35
2023/08/20 05:05:56;;;;;;;;;;;19.00;80.60;;;;;;5095399;28;19920;-35
2023/08/20 05:08:22;;;;;;;;;;;19.00;80.50;;;;;;5095548;28;19908;-35
2023/08/20 05:10:49;;;;;;;;;;;19.00;80.40;;;;;;5095547;28;19908;-35
2023/08/20 05:13:14;;;;;;;;;;;19.10;80.40;;;;;;5095588;28;19908;-36
2023/08/20 05:15:40;;;;;;;;;;;19.10;80.40;;;;;;5095502;28;19912;-34
2023/08/20 05:18:05;;;;;;;;;;;19.10;80.30;;;;;;5095510;28;20003;-36
2023/08/20 05:20:31;;;;;;;;;;;19.20;80.30;;;;;;5095198;28;19915;-33
2023/08/20 05:22:56;;;;;;;;;;;19.20;80.20;;;;;;5095445;28;19939;-37
2023/08/20 05:25:22;;;;;;;;;;;19.20;80.10;;;;;;5095139;28;19912;-32
2023/08/20 05:27:47;;;;;;;;;;;19.30;80.10;;;;;;5095062;28;20473;-35
2023/08/20 05:30:13;;;;;;;;;;;19.40;80.00;;;;;;5095159;28;19915;-35
2023/08/20 05:32:38;;;;;;;;;;;19.40;80.00;;;;;;5095435;28;19908;-34
2023/08/20 05:35:04;;;;;;;;;;;19.40;79.90;;;;;;5095018;28;20391;-33
2023/08/20 05:37:29;;;;;;;;;;;19.50;79.80;;;;;;5094826;28;19908;-34
2023/08/20 05:39:55;;;;;;;;;;;19.50;79.70;;;;;;5094898;28;19912;-35
2023/08/20 05:42:20;;;;;;;;;;;19.50;79.70;;;;;;5094756;28;19986;-35
2023/08/20 05:44:46;;;;;;;;;;;19.60;79.60;;;;;;5095256;28;19912;-35
2023/08/20 05:47:11;;;;;;;;;;;19.60;79.50;;;;;;5095288;28;19951;-35
2023/08/20 05:49:37;;;;;;;;;;;19.60;79.40;;;;;;5094725;28;20379;-35
2023/08/20 05:52:03;;;;;;;;;;;19.70;79.50;;;;;;5094711;28;19908;-35
2023/08/20 05:54:28;;;;;;;;;;;19.70;79.30;;;;;;5093763;28;19909;-34
2023/08/20 05:56:54;;;;;;;;;;;19.80;79.20;;;;;;5094742;28;19954;-47
2023/08/20 05:59:19;;;;;;;;;;;19.80;79.10;;;;;;5094672;28;19962;-35
2023/08/20 06:01:45;;;;;;;;;;;19.90;79.10;;;;;;5094701;28;20427;-36
2023/08/20 06:04:10;;;;;;;;;;;19.90;79.00;;;;;;5094605;28;19919;-35
2023/08/20 06:06:36;;;;;;;;;;;20.00;79.00;;;;;;5094151;28;19920;-35
2023/08/20 06:09:01;;;;;;;;;;;20.00;78.80;;;;;;5093725;28;19908;-35
2023/08/20 06:11:27;;;;;;;;;;;20.10;78.60;;;;;;5094195;28;19908;-37
2023/08/20 06:13:52;;;;;;;;;;;20.20;78.50;;;;;;5094948;28;20287;-34
2023/08/20 06:16:18;;;;;;;;;;;20.30;78.40;;;;;;5094390;28;20372;-35
2023/08/20 06:18:43;;;;;;;;;;;20.30;78.30;;;;;;5094597;28;19908;-35
2023/08/20 06:21:09;;;;;;;;;;;20.30;78.30;;;;;;5094255;28;19908;-34
2023/08/20 06:23:34;;;;;;;;;;;20.30;78.30;;;;;;5094497;28;19908;-34
2023/08/20 06:25:59;;;;;;;;;;;20.20;78.20;;;;;;5094347;28;19962;-38
2023/08/20 06:28:25;;;;;;;;;;;20.30;78.30;;;;;;5094277;28;19908;-34
2023/08/20 06:30:50;;;;;;;;;;;20.20;78.20;;;;;;5094166;28;20399;-35
2023/08/20 06:33:16;;;;;;;;;;;20.30;78.20;;;;;;5094035;28;19908;-35
2023/08/20 06:35:42;;;;;;;;;;;20.20;78.10;;;;;;5094118;28;19908;-35
2023/08/20 06:38:07;;;;;;;;;;;20.30;78.10;;;;;;5094291;28;20279;-36
2023/08/20 06:40:33;;;;;;;;;;;20.30;78.10;;;;;;5093824;28;19908;-34
2023/08/20 06:42:58;;;;;;;;;;;20.30;78.00;;;;;;5093814;28;19912;-35
2023/08/20 06:45:24;;;;;;;;;;;20.30;78.00;;;;;;5093708;28;19916;-35
2023/08/20 06:47:49;;;;;;;;;;;20.30;78.00;;;;;;5093738;28;19915;-35
2023/08/20 06:50:15;;;;;;;;;;;20.40;78.00;;;;;;5093699;28;19908;-34
2023/08/20 06:52:40;;;;;;;;;;;20.40;77.90;;;;;;5093656;28;19948;-35
2023/08/20 06:55:06;;;;;;;;;;;20.40;77.80;;;;;;5093918;28;19953;-34
2023/08/20 06:57:31;;;;;;;;;;;20.40;77.80;;;;;;5093603;28;19908;-34
2023/08/20 06:59:57;;;;;;;;;;;20.40;77.70;;;;;;5093883;28;19915;-36
2023/08/20 07:02:22;;;;;;;;;;;20.50;77.70;;;;;;5093522;28;20006;-39
2023/08/20 07:04:48;;;;;;;;;;;20.50;77.70;;;;;;5093558;28;20007;-34
2023/08/20 07:07:14;;;;;;;;;;;20.50;77.60;;;;;;5093849;28;19919;-34
2023/08/20 07:09:40;;;;;;;;;;;20.50;77.50;;;;;;5093899;28;19915;-36
2023/08/20 07:12:05;;;;;;;;;;;20.60;77.50;;;;;;5093371;28;20367;-34
2023/08/20 07:14:31;;;;;;;;;;;20.60;77.40;;;;;;5093368;28;19908;-33
2023/08/20 07:16:56;;;;;;;;;;;20.60;77.40;;;;;;5093271;28;19908;-35
2023/08/20 07:19:22;;;;;;;;;;;20.70;77.40;;;;;;5093151;28;19908;-34
2023/08/20 07:21:47;;;;;;;;;;;20.70;77.30;;;;;;5092748;28;19908;-35
2023/08/20 07:24:13;;;;;;;;;;;20.70;77.20;;;;;;5093206;28;19916;-34
2023/08/20 07:26:39;;;;;;;;;;;20.80;77.20;;;;;;5091724;28;19908;-34
2023/08/20 07:29:04;;;;;;;;;;;20.80;77.10;;;;;;5093205;28;20327;-35
2023/08/20 07:31:31;;;;;;;;;;;20.80;77.10;;;;;;5093388;28;19908;-35
2023/08/20 07:33:57;;;;;;;;;;;20.80;77.00;;;;;;5093161;28;19908;-35
2023/08/20 07:36:23;;;;;;;;;;;20.90;77.00;;;;;;5092775;28;20394;-34
2023/08/20 07:38:49;;;;;;;;;;;20.90;76.90;;;;;;5093229;28;20014;-35
2023/08/20 07:41:14;;;;;;;;;;;20.90;76.80;;;;;;5093001;28;20387;-36
2023/08/20 07:43:40;;;;;;;;;;;20.90;76.70;;;;;;5092781;28;20018;-36
2023/08/20 07:46:07;;;;;;;;;;;21.00;76.60;;;;;;5092614;28;19908;-36
2023/08/20 07:48:32;;;;;;;;;;;21.00;76.60;;;;;;5091264;28;20411;-41
2023/08/20 07:50:58;;;;;;;;;;;21.00;76.50;;;;;;5092782;28;19963;-35
2023/08/20 07:53:23;;;;;;;;;;;21.10;76.50;;;;;;5092550;28;19908;-35
2023/08/20 07:55:49;;;;;;;;;;;21.10;76.30;;;;;;5092370;28;19908;-42
2023/08/20 07:58:14;;;;;;;;;;;21.10;76.20;;;;;;5092882;28;19973;-37
2023/08/20 08:00:40;;;;;;;;;;;21.20;76.10;;;;;;5091348;28;20008;-38
2023/08/20 08:03:05;;;;;;;;;;;21.20;76.10;;;;;;5092820;28;20019;-36
2023/08/20 08:05:31;;;;;;;;;;;21.20;76.00;;;;;;5092142;28;20464;-37
2023/08/20 08:07:57;;;;;;;;;;;21.30;75.80;;;;;;5092579;28;19953;-35
2023/08/20 08:10:22;;;;;;;;;;;21.30;75.60;;;;;;5092458;28;19958;-35
2023/08/20 08:12:48;;;;;;;;;;;21.40;75.60;;;;;;5092430;28;20411;-35
2023/08/20 08:15:13;;;;;;;;;;;21.50;75.60;;;;;;5092366;28;19909;-35
2023/08/20 08:17:39;;;;;;;;;;;21.50;75.40;;;;;;5092675;28;19915;-40
2023/08/20 08:20:04;;;;;;;;;;;21.50;75.20;;;;;;5092410;28;20364;-34
2023/08/20 08:22:30;;;;;;;;;;;21.60;75.80;;;;;;5092698;28;19995;-35
2023/08/20 08:24:55;;;;;;;;;;;21.60;75.10;;;;;;5092524;28;19923;-35
2023/08/20 08:27:21;;;;;;;;;;;21.60;75.00;;;;;;5092320;28;19908;-37
2023/08/20 08:29:46;;;;;;;;;;;21.70;74.90;;;;;;5092292;28;19916;-35
2023/08/20 08:32:12;;;;;;;;;;;21.80;74.90;;;;;;5091040;28;19908;-37
2023/08/20 08:34:37;;;;;;;;;;;21.80;74.80;;;;;;5096570;28;20269;-38
2023/08/20 08:37:03;;;;;;;;;;;21.90;74.70;;;;;;5096533;28;19911;-37
2023/08/20 08:39:28;;;;;;;;;;;22.00;74.70;;;;;;5096382;28;19912;-33
2023/08/20 08:41:56;;;;;;;;;;;21.90;74.50;;;;;;5094987;28;19908;-34
2023/08/20 08:44:22;;;;;;;;;;;22.00;74.50;;;;;;5095027;28;20333;-35
2023/08/20 08:46:49;;;;;;;;;;;22.10;74.70;;;;;;5096379;28;19911;-35
2023/08/20 08:49:15;;;;;;;;;;;22.20;74.30;;;;;;5096248;28;20355;-34
2023/08/20 08:51:42;;;;;;;;;;;22.20;74.00;;;;;;5095987;28;19912;-35
2023/08/20 08:54:08;;;;;;;;;;;22.30;73.60;;;;;;5096113;28;19954;-37
2023/08/20 08:56:34;;;;;;;;;;;22.40;73.60;;;;;;5095781;28;19908;-33
2023/08/20 08:58:59;;;;;;;;;;;22.40;73.40;;;;;;5094722;28;19915;-34
2023/08/20 09:01:25;;;;;;;;;;;22.50;73.30;;;;;;5096130;28;19908;-35
2023/08/20 09:03:50;;;;;;;;;;;22.50;73.10;;;;;;5095766;28;19908;-35
2023/08/20 09:06:16;;;;;;;;;;;22.60;72.30;;;;;;5095558;28;20069;-48
2023/08/20 09:08:41;;;;;;;;;;;22.60;72.50;;;;;;5094256;28;19908;-37
2023/08/20 09:11:07;;;;;;;;;;;22.60;72.00;;;;;;5095686;28;20386;-37
2023/08/20 09:13:39;;;;;;;;;;;22.70;72.10;;;;;;5095595;28;19916;-38
2023/08/20 09:16:06;;;;;;;;;;;22.80;71.50;;;;;;5095613;28;19915;-36
2023/08/20 09:18:33;;;;;;;;;;;22.80;70.80;;;;;;5095759;28;20323;-38
2023/08/20 09:20:59;;;;;;;;;;;22.80;71.10;;;;;;5095246;28;19955;-37
2023/08/20 09:23:28;;;;;;;;;;;22.90;71.20;;;;;;5095675;28;20414;-37
2023/08/20 09:25:53;;;;;;;;;;;22.90;70.80;;;;;;5095451;28;19966;-37
2023/08/20 09:28:19;;;;;;;;;;;23.00;71.00;;;;;;5095382;28;20375;-34
2023/08/20 09:30:57;;;;;;;;;;;23.00;70.70;;;;;;5095286;28;19908;-39
2023/08/20 09:33:23;;;;;;;;;;;23.10;70.70;;;;;;5095433;28;20286;-40
2023/08/20 09:35:48;;;;;;;;;;;23.20;69.90;;;;;;5095061;28;19908;-36
2023/08/20 09:38:14;;;;;;;;;;;23.20;69.80;;;;;;5095001;28;19908;-38
2023/08/20 09:40:40;;;;;;;;;;;23.20;69.90;;;;;;5094727;28;19912;-32
2023/08/20 09:43:08;;;;;;;;;;;23.30;69.70;;;;;;5094783;28;19908;-36
2023/08/20 09:45:34;;;;;;;;;;;23.30;69.50;;;;;;5094768;28;20312;-37
2023/08/20 09:48:00;;;;;;;;;;;23.30;69.60;;;;;;5094918;28;20383;-37
2023/08/20 09:50:27;;;;;;;;;;;23.40;69.40;;;;;;5094938;28;20372;-37
2023/08/20 09:52:52;;;;;;;;;;;23.40;69.50;;;;;;5094844;28;19908;-37
2023/08/20 09:55:21;;;;;;;;;;;23.40;68.70;;;;;;5094910;28;19912;-36
2023/08/20 09:57:47;;;;;;;;;;;23.40;69.00;;;;;;5094870;28;19994;-36
2023/08/20 10:00:12;;;;;;;;;;;23.50;69.00;;;;;;5094616;28;19915;-39
2023/08/20 10:02:38;;;;;;;;;;;23.50;67.10;;;;;;5094860;28;19912;-37
2023/08/20 10:05:07;;;;;;;;;;;23.60;68.50;;;;;;5094625;28;20272;-39
2023/08/20 10:07:33;;;;;;;;;;;23.60;68.40;;;;;;5093379;28;20286;-38
2023/08/20 10:10:00;;;;;;;;;;;23.70;68.50;;;;;;5094654;28;19999;-37
2023/08/20 10:12:29;;;;;;;;;;;23.80;68.40;;;;;;5094542;28;19935;-38
2023/08/20 10:14:56;;;;;;;;;;;23.80;68.00;;;;;;5094458;28;20386;-38
2023/08/20 10:17:22;;;;;;;;;;;23.90;67.70;;;;;;5094385;28;20360;-37
2023/08/20 10:19:48;;;;;;;;;;;23.90;67.40;;;;;;5094067;28;19908;-37
2023/08/20 10:22:13;;;;;;;;;;;23.90;67.10;;;;;;5094585;28;19908;-37
2023/08/20 10:24:52;;;;;;;;;;;24.00;66.50;;;;;;5092908;28;20299;-37
2023/08/20 10:27:25;;;;;;;;;;;24.00;66.40;;;;;;5094041;28;20291;-36
2023/08/20 10:29:51;;;;;;;;;;;24.00;66.20;;;;;;5094299;28;20379;-36
2023/08/20 10:32:17;;;;;;;;;;;24.10;66.20;;;;;;5094127;28;19914;-37
2023/08/20 10:34:49;;;;;;;;;;;24.10;66.30;;;;;;5094011;28;20430;-37
2023/08/20 10:37:15;;;;;;;;;;;24.10;66.20;;;;;;5093989;28;19939;-38
2023/08/20 10:39:44;;;;;;;;;;;24.20;66.10;;;;;;5093891;28;19967;-37
2023/08/20 10:42:25;;;;;;;;;;;24.20;65.70;;;;;;5093937;28;20390;-37
2023/08/20 10:45:08;;;;;;;;;;;24.30;65.40;;;;;;5093972;28;19934;-36
2023/08/20 10:47:47;;;;;;;;;;;24.40;65.60;;;;;;5093541;28;19908;-44
2023/08/20 10:50:15;;;;;;;;;;;24.50;64.10;;;;;;5093882;28;19930;-40
2023/08/20 10:52:41;;;;;;;;;;;24.50;64.30;;;;;;5092643;28;20002;-39
2023/08/20 10:55:09;;;;;;;;;;;24.60;64.20;;;;;;5093256;28;20368;-37
2023/08/20 10:57:35;;;;;;;;;;;24.60;64.10;;;;;;5093585;28;19963;-39
2023/08/20 11:00:06;;;;;;;;;;;24.70;63.70;;;;;;5093572;28;19947;-37
2023/08/20 11:02:32;;;;;;;;;;;24.70;63.70;;;;;;5075541;28;19908;-36
2023/08/20 11:04:58;;;;;;;;;;;24.80;63.60;;;;;;5093273;28;20037;-37
2023/08/20 11:07:25;;;;;;;;;;;24.80;62.90;;;;;;5093467;28;19922;-36
2023/08/20 11:09:50;;;;;;;;;;;24.90;62.50;;;;;;5093647;28;19908;-38
2023/08/20 11:12:16;;;;;;;;;;;24.90;60.60;;;;;;5093444;28;20362;-39
2023/08/20 11:14:41;;;;;;;;;;;25.00;59.60;;;;;;5093037;28;20306;-37
2023/08/20 11:17:07;;;;;;;;;;;25.10;59.80;;;;;;5093008;28;20346;-37
2023/08/20 11:19:33;;;;;;;;;;;25.20;59.60;;;;;;5091651;28;20003;-36
2023/08/20 11:21:59;;;;;;;;;;;25.30;59.60;;;;;;5092984;28;19951;-40
2023/08/20 11:24:28;;;;;;;;;;;25.30;58.80;;;;;;5093194;28;19916;-36
2023/08/20 11:26:55;;;;;;;;;;;25.40;59.30;;;;;;5093075;28;19908;-37
2023/08/20 11:29:21;;;;;;;;;;;25.40;58.60;;;;;;5092899;28;19908;-36
2023/08/20 11:31:47;;;;;;;;;;;25.50;57.80;;;;;;5093320;28;19991;-37
2023/08/20 11:34:12;;;;;;;;;;;25.60;57.80;;;;;;5092757;28;20439;-38
2023/08/20 11:36:38;;;;;;;;;;;25.60;56.60;;;;;;5092909;28;19959;-40
2023/08/20 11:39:04;;;;;;;;;;;25.70;56.90;;;;;;5091815;28;19908;-35
2023/08/20 11:41:30;;;;;;;;;;;25.70;55.90;;;;;;5093001;28;19915;-37
2023/08/20 11:43:55;;;;;;;;;;;25.70;56.70;;;;;;5092901;28;19915;-36
2023/08/20 11:46:22;;;;;;;;;;;25.80;56.30;;;;;;5092909;28;20268;-37
2023/08/20 11:49:00;;;;;;;;;;;25.80;55.70;;;;;;5092606;28;19947;-38
2023/08/20 11:51:26;;;;;;;;;;;25.90;56.20;;;;;;5092904;28;20316;-37
2023/08/20 11:53:51;;;;;;;;;;;26.00;55.60;;;;;;5092848;28;19908;-38
2023/08/20 11:56:17;;;;;;;;;;;26.10;55.10;;;;;;5092616;28;19909;-39
2023/08/20 11:58:42;;;;;;;;;;;26.10;55.00;;;;;;5092771;28;19971;-37
2023/08/20 12:01:08;;;;;;;;;;;26.10;55.10;;;;;;5092461;28;19912;-39
2023/08/20 12:03:34;;;;;;;;;;;26.30;55.60;;;;;;5092280;28;19908;-37
2023/08/20 12:06:13;;;;;;;;;;;26.30;54.60;;;;;;5092353;28;19916;-39
2023/08/20 12:08:39;;;;;;;;;;;26.40;54.60;;;;;;5092354;28;20451;-39
2023/08/20 12:11:04;;;;;;;;;;;26.40;54.10;;;;;;5092568;28;20002;-38
2023/08/20 12:13:31;;;;;;;;;;;26.40;54.30;;;;;;5092138;28;20408;-37
2023/08/20 12:15:57;;;;;;;;;;;26.50;54.50;;;;;;5090777;28;19916;-36
2023/08/20 12:18:22;;;;;;;;;;;26.50;54.30;;;;;;5092509;28;20348;-36
2023/08/20 12:20:48;;;;;;;;;;;26.60;53.50;;;;;;5091009;28;19909;-40
2023/08/20 12:23:13;;;;;;;;;;;26.70;53.50;;;;;;5092317;28;20360;-38
2023/08/20 12:25:39;;;;;;;;;;;26.70;53.50;;;;;;5092396;28;19912;-39
2023/08/20 12:28:05;;;;;;;;;;;26.80;53.60;;;;;;5092122;28;19915;-35
2023/08/20 12:30:31;;;;;;;;;;;26.90;53.80;;;;;;5092487;28;20279;-38
2023/08/20 12:32:57;;;;;;;;;;;27.00;53.30;;;;;;5092100;28;19915;-35
2023/08/20 12:35:22;;;;;;;;;;;27.10;53.60;;;;;;5092103;28;19942;-38
2023/08/20 12:37:47;;;;;;;;;;;27.20;53.70;;;;;;5091877;28;19916;-37
2023/08/20 12:40:13;;;;;;;;;;;27.30;53.80;;;;;;5090780;28;20265;-38
2023/08/20 12:42:39;;;;;;;;;;;27.40;54.20;;;;;;5092062;28;19908;-37
2023/08/20 12:45:05;;;;;;;;;;;27.40;53.70;;;;;;5092177;28;20468;-37
2023/08/20 12:47:31;;;;;;;;;;;27.50;53.00;;;;;;5091754;28;19915;-38
2023/08/20 12:49:56;;;;;;;;;;;27.50;53.00;;;;;;5091642;28;19908;-37
2023/08/20 12:52:21;;;;;;;;;;;27.60;53.30;;;;;;5092191;28;19908;-46
2023/08/20 12:54:47;;;;;;;;;;;27.70;53.30;;;;;;5091795;28;19955;-36
2023/08/20 12:57:12;;;;;;;;;;;27.80;52.30;;;;;;5090739;28;19909;-35
2023/08/20 12:59:38;;;;;;;;;;;27.90;52.20;;;;;;5092131;28;19963;-37
2023/08/20 13:02:03;;;;;;;;;;;27.90;51.80;;;;;;5091905;28;19908;-37
2023/08/20 13:04:29;;;;;;;;;;;27.90;51.80;;;;;;5091547;28;19955;-37
2023/08/20 13:06:55;;;;;;;;;;;28.00;51.60;;;;;;5090424;28;20315;-37
2023/08/20 13:09:20;;;;;;;;;;;28.00;51.80;;;;;;5092058;28;20359;-37
2023/08/20 13:11:46;;;;;;;;;;;28.10;51.80;;;;;;5091827;28;20414;-37
2023/08/20 13:14:12;;;;;;;;;;;28.20;51.90;;;;;;5091805;28;19920;-39
2023/08/20 13:16:38;;;;;;;;;;;28.30;52.10;;;;;;5091702;28;19921;-39
2023/08/20 13:19:03;;;;;;;;;;;28.40;52.10;;;;;;5093187;28;19912;-37
2023/08/20 13:21:29;;;;;;;;;;;28.50;52.00;;;;;;5095163;28;20019;-36
2023/08/20 13:23:54;;;;;;;;;;;28.60;51.60;;;;;;5095882;28;20303;-37
2023/08/20 13:26:22;;;;;;;;;;;28.70;50.90;;;;;;5095336;28;19997;-37
2023/08/20 13:28:48;;;;;;;;;;;28.70;50.40;;;;;;5095261;28;20026;-37
2023/08/20 13:31:13;;;;;;;;;;;28.70;50.60;;;;;;5095156;28;19994;-43
2023/08/20 13:33:39;;;;;;;;;;;28.60;50.70;;;;;;5095401;28;20045;-50
2023/08/20 13:36:04;;;;;;;;;;;28.50;50.50;;;;;;5095341;28;19962;-38
2023/08/20 13:38:30;;;;;;;;;;;28.60;50.00;;;;;;5093750;28;20329;-43
2023/08/20 13:40:57;;;;;;;;;;;28.60;50.30;;;;;;5095118;28;19912;-33
2023/08/20 13:43:23;;;;;;;;;;;28.60;50.00;;;;;;5095325;28;19912;-39
2023/08/20 13:45:48;;;;;;;;;;;28.70;50.30;;;;;;5094843;28;19916;-38
2023/08/20 13:48:14;;;;;;;;;;;28.80;50.30;;;;;;5095081;28;19942;-38
2023/08/20 13:50:39;;;;;;;;;;;28.90;50.10;;;;;;5094777;28;19942;-34
2023/08/20 13:53:05;;;;;;;;;;;29.00;49.60;;;;;;5094901;28;19912;-39
2023/08/20 13:55:31;;;;;;;;;;;29.10;49.50;;;;;;5094785;28;19912;-37
2023/08/20 13:57:56;;;;;;;;;;;29.10;49.30;;;;;;5095054;28;19912;-36
2023/08/20 14:00:22;;;;;;;;;;;29.20;49.10;;;;;;5094869;28;20260;-36
2023/08/20 14:02:47;;;;;;;;;;;29.20;49.50;;;;;;5094673;28;20300;-36
2023/08/20 14:05:13;;;;;;;;;;;29.30;49.40;;;;;;5094496;28;19923;-35
2023/08/20 14:07:38;;;;;;;;;;;29.30;49.40;;;;;;5094403;28;19912;-38
2023/08/20 14:10:04;;;;;;;;;;;29.40;49.60;;;;;;5094449;28;19912;-40